createdAt,value
2018-05-24T00:00:42.005Z,95129.78
2018-05-24T00:03:11.042Z,95133.06
2018-05-24T00:05:39.325Z,95134.25
2018-05-24T00:08:07.563Z,95135.21
2018-05-24T00:10:35.824Z,95141.19
2018-05-24T00:13:04.090Z,95144.08
2018-05-24T00:15:32.358Z,95131.86
2018-05-24T00:18:00.619Z,95132.30
2018-05-24T00:20:28.886Z,95132.19
2018-05-24T00:22:57.908Z,95129.06
2018-05-24T00:25:26.167Z,95133.39
2018-05-24T00:27:54.443Z,95136.47
2018-05-24T00:30:23.482Z,95138.77
2018-05-24T00:32:51.726Z,95136.08
2018-05-24T00:35:19.998Z,95129.31
2018-05-24T00:37:49.027Z,95129.89
2018-05-24T00:40:17.290Z,95121.39
2018-05-24T00:42:45.543Z,95118.88
2018-05-24T00:45:14.572Z,95128.90
2018-05-24T00:47:42.849Z,95125.75
2018-05-24T00:50:11.121Z,95124.89
2018-05-24T00:52:40.135Z,95133.64
2018-05-24T00:55:26.275Z,95132.73
2018-05-24T00:57:56.035Z,95134.19
2018-05-24T01:00:24.804Z,95127.70
2018-05-24T01:02:53.838Z,95126.46
2018-05-24T01:05:22.111Z,95125.03
2018-05-24T01:07:50.370Z,95124.92
2018-05-24T01:10:19.408Z,95119.75
2018-05-24T01:12:47.676Z,95119.97
2018-05-24T01:15:15.952Z,95128.27
2018-05-24T01:17:44.215Z,95129.50
2018-05-24T01:20:12.485Z,95137.67
2018-05-24T01:22:41.517Z,95131.95
2018-05-24T01:25:09.783Z,95131.16
2018-05-24T01:27:38.049Z,95128.59
2018-05-24T01:30:07.070Z,95139.42
2018-05-24T01:32:35.836Z,95136.66
2018-05-24T01:35:04.852Z,95139.47
2018-05-24T01:37:51.024Z,95137.41
2018-05-24T01:40:20.042Z,95132.65
2018-05-24T01:42:48.313Z,95137.98
2018-05-24T01:45:16.581Z,95139.06
2018-05-24T01:47:45.612Z,95145.70
2018-05-24T01:50:13.866Z,95144.47
2018-05-24T01:52:42.146Z,95142.23
2018-05-24T01:55:11.320Z,95153.58
2018-05-24T01:57:40.336Z,95149.81
2018-05-24T02:00:09.356Z,95151.30
2018-05-24T02:02:37.637Z,95152.88
2018-05-24T02:05:05.891Z,95158.61
2018-05-24T02:07:34.919Z,95159.30
2018-05-24T02:10:03.173Z,95151.77
2018-05-24T02:12:33.439Z,95155.18
2018-05-24T02:15:02.016Z,95154.22
2018-05-24T02:17:30.291Z,95146.25
2018-05-24T02:19:58.548Z,95144.14
2018-05-24T02:22:27.664Z,95137.16
2018-05-24T02:24:55.939Z,95140.69
2018-05-24T02:27:24.218Z,95134.03
2018-05-24T02:29:53.235Z,95137.07
2018-05-24T02:32:21.502Z,95147.67
2018-05-24T02:34:50.523Z,95140.14
2018-05-24T02:37:18.931Z,95141.26
2018-05-24T02:39:47.192Z,95143.56
2018-05-24T02:42:15.452Z,95143.97
2018-05-24T02:44:43.719Z,95139.73
2018-05-24T02:47:13.460Z,95143.62
2018-05-24T02:49:41.732Z,95140.55
2018-05-24T02:52:10.231Z,95146.28
2018-05-24T02:54:38.487Z,95148.94
2018-05-24T02:57:06.761Z,95149.44
2018-05-24T02:59:35.766Z,95150.06
2018-05-24T03:02:04.031Z,95143.52
2018-05-24T03:04:33.055Z,95144.97
2018-05-24T03:07:01.319Z,95153.16
2018-05-24T03:09:29.575Z,95147.07
2018-05-24T03:11:58.613Z,95152.64
2018-05-24T03:14:27.020Z,95151.30
2018-05-24T03:16:55.158Z,95160.45
2018-05-24T03:19:24.171Z,95157.57
2018-05-24T03:21:52.449Z,95157.48
2018-05-24T03:24:21.475Z,95160.05
2018-05-24T03:26:49.744Z,95164.70
2018-05-24T03:29:17.990Z,95158.31
2018-05-24T03:31:47.030Z,95161.00
2018-05-24T03:34:15.295Z,95155.02
2018-05-24T03:36:43.574Z,95152.30
2018-05-24T03:39:11.814Z,95158.89
2018-05-24T03:41:40.848Z,95158.70
2018-05-24T03:44:09.120Z,95163.48
2018-05-24T03:46:38.144Z,95168.61
2018-05-24T03:49:07.256Z,95172.83
2018-05-24T03:51:35.502Z,95168.25
2018-05-24T03:54:03.770Z,95166.73
2018-05-24T03:56:32.791Z,95169.50
2018-05-24T03:59:04.063Z,95163.90
2018-05-24T04:01:50.272Z,95167.44
2018-05-24T04:04:38.210Z,95165.31
2018-05-24T04:07:07.255Z,95169.44
2018-05-24T04:09:35.512Z,95162.59
2018-05-24T04:12:04.629Z,95170.02
2018-05-24T04:14:32.834Z,95168.22
2018-05-24T04:17:01.076Z,95171.44
2018-05-24T04:19:29.355Z,95175.79
2018-05-24T04:21:57.614Z,95175.27
2018-05-24T04:24:26.654Z,95181.55
2018-05-24T04:26:54.913Z,95178.84
2018-05-24T04:29:23.928Z,95180.00
2018-05-24T04:31:52.191Z,95181.48
2018-05-24T04:34:20.463Z,95182.34
2018-05-24T04:36:49.583Z,95181.92
2018-05-24T04:39:17.856Z,95174.48
2018-05-24T04:41:46.107Z,95176.79
2018-05-24T04:44:15.147Z,95180.62
2018-05-24T04:46:43.410Z,95182.22
2018-05-24T04:49:12.439Z,95180.95
2018-05-24T04:51:40.719Z,95182.04
2018-05-24T04:54:08.982Z,95180.02
2018-05-24T04:56:37.242Z,95177.79
2018-05-24T04:59:06.275Z,95188.72
2018-05-24T05:01:34.590Z,95183.86
2018-05-24T05:04:03.512Z,95188.23
2018-05-24T05:06:32.543Z,95193.14
2018-05-24T05:09:00.808Z,95188.38
2018-05-24T05:11:29.064Z,95192.36
2018-05-24T05:13:58.093Z,95189.17
2018-05-24T05:16:26.344Z,95192.47
2018-05-24T05:18:55.379Z,95192.22
2018-05-24T05:21:23.656Z,95194.41
2018-05-24T05:23:51.920Z,95193.65
2018-05-24T05:26:20.943Z,95201.77
2018-05-24T05:28:49.207Z,95204.61
2018-05-24T05:31:17.455Z,95204.06
2018-05-24T05:33:46.495Z,95207.84
2018-05-24T05:36:14.741Z,95214.42
2018-05-24T05:38:43.768Z,95216.63
2018-05-24T05:41:12.015Z,95214.92
2018-05-24T05:43:41.051Z,95217.18
2018-05-24T05:46:09.305Z,95216.11
2018-05-24T05:48:39.767Z,95213.48
2018-05-24T05:51:08.045Z,95214.81
2018-05-24T05:53:36.312Z,95209.34
2018-05-24T05:56:04.567Z,95217.03
2018-05-24T05:58:33.604Z,95217.84
2018-05-24T06:01:01.867Z,95218.19
2018-05-24T06:03:30.138Z,95222.70
2018-05-24T06:05:59.161Z,95222.61
2018-05-24T06:08:27.426Z,95219.95
2018-05-24T06:10:56.459Z,95212.41
2018-05-24T06:13:24.816Z,95217.48
2018-05-24T06:15:53.076Z,95219.04
2018-05-24T06:18:22.111Z,95224.47
2018-05-24T06:20:50.361Z,95224.54
2018-05-24T06:23:19.382Z,95217.01
2018-05-24T06:25:47.651Z,95212.22
2018-05-24T06:28:16.666Z,95216.07
2018-05-24T06:30:44.924Z,95221.01
2018-05-24T06:33:13.176Z,95218.80
2018-05-24T06:35:42.209Z,95223.52
2018-05-24T06:38:10.469Z,95221.77
2018-05-24T06:40:39.621Z,95225.03
2018-05-24T06:43:07.762Z,95220.77
2018-05-24T06:45:36.023Z,95222.67
2018-05-24T06:48:05.266Z,95231.23
2018-05-24T06:50:33.525Z,95233.18
2018-05-24T06:53:02.533Z,95235.31
2018-05-24T06:55:30.811Z,95232.06
2018-05-24T06:57:59.073Z,95234.39
2018-05-24T07:00:28.101Z,95234.53
2018-05-24T07:02:56.359Z,95234.12
2018-05-24T07:05:24.635Z,95230.23
2018-05-24T07:07:53.660Z,95232.85
2018-05-24T07:10:21.916Z,95232.19
2018-05-24T07:12:50.186Z,95236.61
2018-05-24T07:15:19.219Z,95232.60
2018-05-24T07:17:47.475Z,95234.50
2018-05-24T07:20:16.529Z,95233.12
2018-05-24T07:22:44.855Z,95230.86
2018-05-24T07:25:14.466Z,95232.19
2018-05-24T07:27:42.727Z,95230.51
2018-05-24T07:30:10.987Z,95234.34
2018-05-24T07:32:40.020Z,95241.19
2018-05-24T07:35:09.067Z,95241.83
2018-05-24T07:37:37.365Z,95235.81
2018-05-24T07:40:05.574Z,95240.11
2018-05-24T07:42:34.597Z,95241.00
2018-05-24T07:45:02.876Z,95235.99
2018-05-24T07:47:31.967Z,95235.66
2018-05-24T07:50:00.235Z,95233.38
2018-05-24T07:52:29.262Z,95237.94
2018-05-24T07:54:57.543Z,95237.41
2018-05-24T07:57:25.777Z,95233.24
2018-05-24T07:59:54.813Z,95238.18
2018-05-24T08:02:23.130Z,95237.83
2018-05-24T08:04:51.400Z,95233.81
2018-05-24T08:07:19.655Z,95237.48
2018-05-24T08:09:47.924Z,95238.97
2018-05-24T08:12:16.946Z,95239.70
2018-05-24T08:14:45.244Z,95242.33
2018-05-24T08:17:14.222Z,95241.25
2018-05-24T08:19:42.494Z,95242.88
2018-05-24T08:22:10.764Z,95241.19
2018-05-24T08:24:39.043Z,95243.46
2018-05-24T08:27:07.319Z,95237.73
2018-05-24T08:29:37.595Z,95246.91
2018-05-24T08:32:05.861Z,95249.47
2018-05-24T08:34:34.131Z,95245.56
2018-05-24T08:37:02.390Z,95247.45
2018-05-24T08:39:30.643Z,95244.69
2018-05-24T08:41:59.677Z,95248.84
2018-05-24T08:44:27.936Z,95245.92
2018-05-24T08:46:57.107Z,95243.67
2018-05-24T08:49:25.361Z,95242.67
2018-05-24T08:51:53.628Z,95248.27
2018-05-24T08:54:21.887Z,95248.63
2018-05-24T08:56:50.161Z,95252.77
2018-05-24T08:59:19.183Z,95257.59
2018-05-24T09:01:47.450Z,95251.41
2018-05-24T09:04:15.707Z,95248.09
2018-05-24T09:06:44.740Z,95254.93
2018-05-24T09:09:12.990Z,95258.74
2018-05-24T09:11:42.019Z,95254.00
2018-05-24T09:14:10.290Z,95253.27
2018-05-24T09:16:38.555Z,95252.56
2018-05-24T09:19:07.578Z,95254.95
2018-05-24T09:21:36.123Z,95255.48
2018-05-24T09:24:05.151Z,95261.23
2018-05-24T09:26:33.427Z,95258.81
2018-05-24T09:29:02.468Z,95259.52
2018-05-24T09:31:30.726Z,95254.06
2018-05-24T09:33:58.984Z,95252.64
2018-05-24T09:36:28.019Z,95256.37
2018-05-24T09:38:56.277Z,95258.19
2018-05-24T09:41:24.547Z,95264.82
2018-05-24T09:43:52.798Z,95260.00
2018-05-24T09:46:21.838Z,95258.27
2018-05-24T09:48:50.088Z,95263.48
2018-05-24T09:51:19.117Z,95255.41
2018-05-24T09:53:48.279Z,95243.61
2018-05-24T09:56:17.306Z,95259.56
2018-05-24T09:58:45.559Z,95254.72
2018-05-24T10:01:14.590Z,95246.64
2018-05-24T10:03:42.845Z,95245.73
2018-05-24T10:06:11.875Z,95238.69
2018-05-24T10:08:40.136Z,95240.11
2018-05-24T10:11:09.455Z,95240.55
2018-05-24T10:13:37.711Z,95236.02
2018-05-24T10:16:07.440Z,95233.20
2018-05-24T10:18:35.927Z,95234.83
2018-05-24T10:21:04.175Z,95229.80
2018-05-24T10:23:33.231Z,95222.02
2018-05-24T10:26:01.466Z,95219.94
2018-05-24T10:28:30.495Z,95217.45
2018-05-24T10:30:58.754Z,95213.97
2018-05-24T10:33:27.011Z,95215.20
2018-05-24T10:35:56.850Z,95204.41
2018-05-24T10:38:25.873Z,95200.36
2018-05-24T10:40:54.131Z,95201.39
2018-05-24T10:43:23.169Z,95197.73
2018-05-24T10:45:51.428Z,95190.83
2018-05-24T10:48:19.687Z,95189.09
2018-05-24T10:50:47.959Z,95185.23
2018-05-24T10:53:16.999Z,95182.09
2018-05-24T10:55:45.987Z,95182.72
2018-05-24T10:58:14.250Z,95176.00
2018-05-24T11:00:42.546Z,95180.83
2018-05-24T11:03:10.862Z,95175.17
2018-05-24T11:05:39.074Z,95181.73
2018-05-24T11:08:08.100Z,95171.15
2018-05-24T11:10:36.362Z,95166.82
2018-05-24T11:13:05.391Z,95170.42
2018-05-24T11:15:33.664Z,95169.02
2018-05-24T11:18:01.928Z,95165.98
2018-05-24T11:20:30.938Z,95161.55
2018-05-24T11:22:59.192Z,95159.02
2018-05-24T11:25:28.223Z,95163.22
2018-05-24T11:27:56.493Z,95155.88
2018-05-24T11:30:24.747Z,95156.19
2018-05-24T11:32:53.763Z,95154.09
2018-05-24T11:35:22.351Z,95148.41
2018-05-24T11:37:50.598Z,95146.45
2018-05-24T11:40:19.618Z,95134.97
2018-05-24T11:42:48.651Z,95144.39
2018-05-24T11:45:16.898Z,95142.77
2018-05-24T11:47:45.927Z,95135.31
2018-05-24T11:50:14.179Z,95135.17
2018-05-24T11:52:44.241Z,95134.32
2018-05-24T11:55:12.499Z,95130.80
2018-05-24T11:57:40.752Z,95133.30
2018-05-24T12:00:09.783Z,95123.33
2018-05-24T12:02:38.043Z,95117.22
2018-05-24T12:05:07.055Z,95119.44
2018-05-24T12:07:35.319Z,95113.16
2018-05-24T12:10:03.572Z,95115.16
2018-05-24T12:12:32.614Z,95111.45
2018-05-24T12:15:02.670Z,95111.98
2018-05-24T12:17:30.921Z,95113.68
2018-05-24T12:19:59.175Z,95113.95
2018-05-24T12:22:28.199Z,95115.66
2018-05-24T12:24:56.469Z,95108.38
2018-05-24T12:27:24.726Z,95106.94
2018-05-24T12:29:53.750Z,95109.53
2018-05-24T12:32:22.014Z,95108.91
2018-05-24T12:34:50.285Z,95109.52
2018-05-24T12:37:19.321Z,95114.00
2018-05-24T12:39:47.599Z,95117.88
2018-05-24T12:42:15.873Z,95105.52
2018-05-24T12:44:44.124Z,95113.94
2018-05-24T12:47:14.395Z,95113.16
2018-05-24T12:49:42.648Z,95113.09
2018-05-24T12:52:10.911Z,95109.20
2018-05-24T12:54:40.059Z,95104.97
2018-05-24T12:57:09.043Z,95100.99
2018-05-24T12:59:37.314Z,95100.38
2018-05-24T13:02:05.583Z,95104.77
2018-05-24T13:04:33.899Z,95112.84
2018-05-24T13:07:02.872Z,95108.37
2018-05-24T13:09:31.118Z,95112.59
2018-05-24T13:12:00.204Z,95108.69
2018-05-24T13:14:28.399Z,95102.82
2018-05-24T13:16:57.481Z,95094.83
2018-05-24T13:19:28.084Z,95093.59
2018-05-24T13:21:56.346Z,95091.78
2018-05-24T13:24:24.712Z,95093.98
2018-05-24T13:26:52.895Z,95095.73
2018-05-24T13:29:21.171Z,95097.52
2018-05-24T13:31:50.274Z,95097.12
2018-05-24T13:34:18.551Z,95090.08
2018-05-24T13:36:47.575Z,95094.06
2018-05-24T13:39:15.991Z,95087.89
2018-05-24T13:41:44.239Z,95089.55
2018-05-24T13:44:12.513Z,95096.66
2018-05-24T13:46:40.766Z,95100.00
2018-05-24T13:49:09.789Z,95098.66
2018-05-24T13:51:38.666Z,95103.38
2018-05-24T13:54:07.691Z,95097.50
2018-05-24T13:56:35.954Z,95101.02
2018-05-24T13:59:04.216Z,95093.41
2018-05-24T14:01:33.245Z,95096.92
2018-05-24T14:04:01.503Z,95095.55
2018-05-24T14:06:30.527Z,95086.95
2018-05-24T14:08:58.817Z,95085.39
2018-05-24T14:11:27.075Z,95084.48
2018-05-24T14:13:55.342Z,95087.74
2018-05-24T14:16:23.599Z,95084.03
2018-05-24T14:18:52.940Z,95083.70
2018-05-24T14:21:21.210Z,95086.53
2018-05-24T14:23:50.707Z,95085.13
2018-05-24T14:26:19.746Z,95083.28
2018-05-24T14:28:48.012Z,95076.69
2018-05-24T14:31:16.274Z,95072.73
2018-05-24T14:33:45.605Z,95071.66
2018-05-24T14:36:13.864Z,95066.64
2018-05-24T14:38:42.118Z,95067.30
2018-05-24T14:41:11.151Z,95068.62
2018-05-24T14:43:39.404Z,95071.95
2018-05-24T14:46:08.518Z,95066.43
2018-05-24T14:48:37.555Z,95069.28
2018-05-24T14:51:05.815Z,95059.08
2018-05-24T14:53:34.078Z,95059.64
2018-05-24T14:56:02.350Z,95051.27
2018-05-24T14:58:31.367Z,95049.85
2018-05-24T15:00:59.631Z,95048.89
2018-05-24T15:03:28.662Z,95042.84
2018-05-24T15:05:56.927Z,95046.63
2018-05-24T15:08:25.198Z,95043.38
2018-05-24T15:10:54.211Z,95039.62
2018-05-24T15:16:32.207Z,95031.34
2018-05-24T15:19:00.467Z,95036.89
2018-05-24T15:21:29.495Z,95029.55
2018-05-24T15:23:57.751Z,95037.19
2018-05-24T15:26:26.882Z,95040.63
2018-05-24T15:28:55.156Z,95039.80
2018-05-24T15:31:23.420Z,95045.44
2018-05-24T15:33:51.715Z,95047.33
2018-05-24T15:36:20.723Z,95051.72
2018-05-24T15:38:48.995Z,95059.52
2018-05-24T15:41:17.258Z,95055.31
2018-05-24T15:43:46.255Z,95054.23
2018-05-24T15:46:15.280Z,95061.03
2018-05-24T15:48:43.532Z,95056.14
2018-05-24T15:51:12.563Z,95062.97
2018-05-24T15:53:40.811Z,95059.48
2018-05-24T15:56:09.099Z,95063.16
2018-05-24T15:58:37.366Z,95060.09
2018-05-24T16:01:06.390Z,95059.85
2018-05-24T16:03:34.641Z,95054.16
2018-05-24T16:06:03.763Z,95059.59
2018-05-24T16:08:32.028Z,95055.75
2018-05-24T16:11:01.058Z,95053.90
2018-05-24T16:13:29.311Z,95062.66
2018-05-24T16:15:59.034Z,95063.88
2018-05-24T16:18:27.285Z,95061.31
2018-05-24T16:20:56.318Z,95062.56
2018-05-24T16:23:24.566Z,95059.98
2018-05-24T16:25:53.631Z,95055.84
2018-05-24T16:28:21.963Z,95049.88
2018-05-24T16:30:50.233Z,95047.12
2018-05-24T16:33:19.258Z,95054.27
2018-05-24T16:35:47.520Z,95059.27
2018-05-24T16:38:15.787Z,95053.37
2018-05-24T16:40:44.811Z,95057.79
2018-05-24T16:43:13.058Z,95057.74
2018-05-24T16:45:41.327Z,95057.52
2018-05-24T16:48:09.583Z,95062.83
2018-05-24T16:50:37.849Z,95060.03
2018-05-24T16:53:06.098Z,95053.42
2018-05-24T16:55:35.135Z,95051.77
2018-05-24T16:58:03.378Z,95045.10
2018-05-24T17:00:31.685Z,95043.06
2018-05-24T17:03:00.676Z,95044.88
2018-05-24T17:05:28.940Z,95038.13
2018-05-24T17:07:57.203Z,95041.87
2018-05-24T17:10:26.238Z,95048.76
2018-05-24T17:12:54.492Z,95049.59
2018-05-24T17:15:23.514Z,95049.05
2018-05-24T17:17:51.766Z,95052.30
2018-05-24T17:20:20.826Z,95055.03
2018-05-24T17:22:49.095Z,95059.80
2018-05-24T17:25:17.354Z,95067.41
2018-05-24T17:27:45.621Z,95071.06
2018-05-24T17:30:13.883Z,95079.02
2018-05-24T17:32:42.903Z,95079.19
2018-05-24T17:35:11.172Z,95081.95
2018-05-24T17:37:39.430Z,95092.31
2018-05-24T17:40:08.605Z,95083.77
2018-05-24T17:42:36.876Z,95086.69
2018-05-24T17:45:05.143Z,95091.20
2018-05-24T17:47:33.413Z,95098.71
2018-05-24T17:50:01.683Z,95098.42
2018-05-24T17:52:29.932Z,95102.05
2018-05-24T17:54:58.964Z,95101.88
2018-05-24T17:57:27.235Z,95100.44
2018-05-24T17:59:55.512Z,95103.31
2018-05-24T18:02:25.779Z,95102.91
2018-05-24T18:04:54.039Z,95102.53
2018-05-24T18:07:22.301Z,95095.13
2018-05-24T18:09:50.562Z,95095.40
2018-05-24T18:12:18.830Z,95098.91
2018-05-24T18:14:48.607Z,95104.02
2018-05-24T18:17:17.054Z,95111.34
2018-05-24T18:19:46.063Z,95115.56
2018-05-24T18:22:14.332Z,95120.61
2018-05-24T18:24:43.364Z,95131.02
2018-05-24T18:27:11.684Z,95137.38
2018-05-24T18:29:39.884Z,95132.27
2018-05-24T18:32:08.997Z,95133.22
2018-05-24T18:34:37.995Z,95138.22
2018-05-24T18:37:06.269Z,95135.31
2018-05-24T18:39:35.303Z,95140.34
2018-05-24T18:42:03.572Z,95137.11
2018-05-24T18:44:31.823Z,95142.05
2018-05-24T18:47:00.854Z,95146.95
2018-05-24T18:49:29.111Z,95146.72
2018-05-24T18:51:58.138Z,95150.51
2018-05-24T18:54:26.394Z,95145.81
2018-05-24T18:56:54.676Z,95154.80
2018-05-24T18:59:22.926Z,95155.01
2018-05-24T19:01:51.955Z,95157.23
2018-05-24T19:04:20.211Z,95158.60
2018-05-24T19:06:50.485Z,95158.44
2018-05-24T19:09:18.768Z,95164.89
2018-05-24T19:11:47.035Z,95163.48
2018-05-24T19:14:15.288Z,95165.02
2018-05-24T19:16:44.401Z,95166.02
2018-05-24T19:19:12.658Z,95163.20
2018-05-24T19:21:41.688Z,95173.33
2018-05-24T19:24:09.944Z,95172.02
2018-05-24T19:26:38.977Z,95180.21
2018-05-24T19:29:07.235Z,95186.75
2018-05-24T19:31:35.502Z,95186.16
2018-05-24T19:34:04.531Z,95189.59
2018-05-24T19:36:32.786Z,95189.07
2018-05-24T19:39:01.821Z,95200.52
2018-05-24T19:41:30.075Z,95205.25
2018-05-24T19:43:58.349Z,95209.20
2018-05-24T19:46:27.367Z,95206.75
2018-05-24T19:48:56.243Z,95207.34
2018-05-24T19:51:24.523Z,95203.92
2018-05-24T19:53:53.547Z,95209.20
2018-05-24T19:56:21.808Z,95213.28
2018-05-24T19:58:50.088Z,95208.52
2018-05-24T20:01:19.118Z,95213.51
2018-05-24T20:03:47.462Z,95223.17
2018-05-24T20:06:15.723Z,95221.25
2018-05-24T20:08:44.747Z,95219.06
2018-05-24T20:11:13.022Z,95210.89
2018-05-24T20:13:41.295Z,95209.00
2018-05-24T20:16:10.327Z,95207.20
2018-05-24T20:18:38.601Z,95211.41
2018-05-24T20:21:07.876Z,95217.83
2018-05-24T20:23:36.907Z,95224.41
2018-05-24T20:26:05.168Z,95219.95
2018-05-24T20:28:33.445Z,95218.35
2018-05-24T20:31:01.753Z,95211.59
2018-05-24T20:33:30.013Z,95215.41
2018-05-24T20:35:58.283Z,95213.86
2018-05-24T20:38:27.299Z,95218.17
2018-05-24T20:40:55.572Z,95217.33
2018-05-24T20:43:23.850Z,95218.62
2018-05-24T20:45:52.137Z,95225.39
2018-05-24T20:48:20.406Z,95231.14
2018-05-24T20:50:49.419Z,95229.86
2018-05-24T20:53:18.201Z,95225.23
2018-05-24T20:55:46.470Z,95221.02
2018-05-24T20:58:15.496Z,95219.84
2018-05-24T21:00:43.783Z,95227.59
2018-05-24T21:03:12.027Z,95220.71
2018-05-24T21:05:41.053Z,95225.84
2018-05-24T21:08:09.303Z,95228.22
2018-05-24T21:10:38.337Z,95235.55
2018-05-24T21:13:06.600Z,95236.27
2018-05-24T21:15:35.467Z,95238.91
2018-05-24T21:18:04.499Z,95243.42
2018-05-24T21:20:32.747Z,95250.22
2018-05-24T21:23:01.778Z,95259.26
2018-05-24T21:25:30.033Z,95251.08
2018-05-24T21:27:59.063Z,95259.66
2018-05-24T21:30:27.373Z,95259.33
2018-05-24T21:32:55.605Z,95260.78
2018-05-24T21:35:24.698Z,95263.39
2018-05-24T21:37:53.781Z,95262.73
2018-05-24T21:40:21.997Z,95271.26
2018-05-24T21:42:50.263Z,95273.49
2018-05-24T21:45:18.532Z,95268.25
2018-05-24T21:47:47.567Z,95268.21
2018-05-24T21:50:15.821Z,95267.17
2018-05-24T21:52:45.126Z,95276.58
2018-05-24T21:55:13.378Z,95268.61
2018-05-24T21:57:42.879Z,95274.53
2018-05-24T22:00:11.902Z,95260.72
2018-05-24T22:02:40.949Z,95266.16
2018-05-24T22:05:09.216Z,95262.92
2018-05-24T22:07:37.481Z,95265.10
2018-05-24T22:10:05.743Z,95266.27
2018-05-24T22:12:34.775Z,95266.69
2018-05-24T22:15:03.059Z,95265.73
2018-05-24T22:17:31.307Z,95265.47
2018-05-24T22:20:00.343Z,95265.83
2018-05-24T22:22:28.588Z,95260.06
2018-05-24T22:24:56.861Z,95258.34
2018-05-24T22:27:25.893Z,95250.94
2018-05-24T22:29:54.951Z,95255.83
2018-05-24T22:32:23.978Z,95254.14
2018-05-24T22:34:52.239Z,95258.23
2018-05-24T22:37:21.256Z,95265.71
2018-05-24T22:39:49.511Z,95263.22
2018-05-24T22:42:18.538Z,95263.52
2018-05-24T22:44:46.793Z,95259.22
2018-05-24T22:47:15.807Z,95258.06
2018-05-24T22:49:44.075Z,95264.57
2018-05-24T22:52:12.890Z,95251.19
2018-05-24T22:54:41.170Z,95257.84
2018-05-24T22:57:09.447Z,95252.84
2018-05-24T22:59:37.732Z,95255.94
2018-05-24T23:02:06.558Z,95255.99
2018-05-24T23:04:34.806Z,95252.68
2018-05-24T23:07:03.059Z,95241.01
2018-05-24T23:09:32.093Z,95243.02
2018-05-24T23:12:00.343Z,95243.59
2018-05-24T23:14:29.381Z,95248.18
2018-05-24T23:16:57.618Z,95249.20
2018-05-24T23:19:26.646Z,95244.36
2018-05-24T23:21:54.902Z,95248.49
2018-05-24T23:24:23.177Z,95237.34
2018-05-24T23:26:52.215Z,95235.06
2018-05-24T23:29:20.567Z,95235.47
2018-05-24T23:31:48.831Z,95233.75
2018-05-24T23:34:19.108Z,95237.08
2018-05-24T23:36:47.363Z,95238.78
2018-05-24T23:39:15.630Z,95232.59
2018-05-24T23:41:43.917Z,95239.22
2018-05-24T23:44:13.646Z,95229.69
2018-05-24T23:46:41.928Z,95228.61
2018-05-24T23:49:10.176Z,95221.67
2018-05-24T23:51:39.199Z,95225.91
2018-05-24T23:54:07.463Z,95229.63
2018-05-24T23:56:35.730Z,95222.86
2018-05-24T23:59:04.757Z,95226.00
